| time (UTC) | temp F | wind direction | speed knots | gust knots | rain 1hr in | rain 24hr in | rain mn in | humidity % | barometer mb |
| 20260508012607 | 46 | 38 | 7.0 | 12.2 | 0.00 | 0.00 | 0.00 | 83 | 1018.0 |
| 20260508011607 | 47 | 38 | 7.0 | 12.2 | 0.00 | 0.00 | 0.00 | 82 | 1018.0 |
| 20260508010607 | 47 | 38 | 7.0 | 12.2 | 0.00 | 0.00 | 0.00 | 82 | 1018.0 |
| 20260508005607 | 47 | 38 | 7.0 | 12.2 | 0.00 | 0.00 | 0.00 | 82 | 1018.0 |
| 20260508004607 | 47 | 43 | 7.0 | 13.0 | 0.00 | 0.00 | 0.00 | 82 | 1018.0 |
| 20260508003608 | 47 | 43 | 7.0 | 13.0 | 0.00 | 0.00 | 0.00 | 82 | 1018.0 |
| 20260508002607 | 47 | 42 | 7.0 | 13.0 | 0.00 | 0.00 | 0.00 | 82 | 1018.0 |
| 20260508001607 | 47 | 42 | 7.0 | 13.0 | 0.00 | 0.00 | 0.00 | 84 | 1018.0 |
| 20260508000607 | 47 | 42 | 7.0 | 13.0 | 0.00 | 0.00 | 0.00 | 84 | 1018.0 |
| 20260507235607 | 47 | 42 | 7.0 | 13.0 | 0.00 | 0.00 | 0.00 | 85 | 1018.0 |
| 20260507234607 | 48 | 42 | 7.0 | 13.0 | 0.00 | 0.00 | 0.00 | 85 | 1018.0 |
| 20260507233607 | 48 | 32 | 6.1 | 11.3 | 0.00 | 0.00 | 0.00 | 85 | 1018.0 |
| 20260507232612 | 48 | 32 | 6.1 | 11.3 | 0.00 | 0.00 | 0.00 | 85 | 1018.0 |
| 20260507231607 | 48 | 32 | 6.1 | 11.3 | 0.00 | 0.00 | 0.00 | 85 | 1018.0 |
| 20260507230607 | 48 | 32 | 6.1 | 11.3 | 0.00 | 0.00 | 0.00 | 85 | 1018.0 |
| 20260507225607 | 48 | 32 | 6.1 | 11.3 | 0.00 | 0.00 | 0.00 | 86 | 1018.0 |
| 20260507224607 | 48 | 32 | 6.1 | 11.3 | 0.00 | 0.00 | 0.00 | 86 | 1018.0 |
| 20260507223607 | 48 | 32 | 6.1 | 11.3 | 0.00 | 0.00 | 0.00 | 86 | 1018.0 |
| 20260507222607 | 48 | 12 | 6.1 | 10.4 | 0.00 | 0.00 | 0.00 | 86 | 1018.0 |
| 20260507221607 | 48 | 12 | 6.1 | 10.4 | 0.00 | 0.00 | 0.00 | 86 | 1017.0 |
| 20260507220607 | 48 | 12 | 6.1 | 10.4 | 0.00 | 0.00 | 0.00 | 86 | 1017.0 |
| 20260507215607 | 48 | 12 | 6.1 | 10.4 | 0.00 | 0.00 | 0.00 | 87 | 1018.0 |
| 20260507214607 | 48 | 12 | 6.1 | 10.4 | 0.00 | 0.00 | 0.00 | 87 | 1017.0 |
| 20260507213607 | 48 | 12 | 6.1 | 10.4 | 0.00 | 0.00 | 0.00 | 87 | 1017.0 |
| 20260507212607 | 48 | 3 | 6.1 | 11.3 | 0.00 | 0.00 | 0.00 | 86 | 1017.0 |
| 20260507211607 | 48 | 3 | 6.1 | 11.3 | 0.00 | 0.00 | 0.00 | 86 | 1017.0 |
| 20260507210607 | 48 | 3 | 6.1 | 11.3 | 0.00 | 0.00 | 0.00 | 86 | 1017.0 |
| 20260507205607 | 48 | 3 | 6.1 | 11.3 | 0.00 | 0.00 | 0.00 | 87 | 1017.0 |
| 20260507204607 | 48 | 3 | 6.1 | 11.3 | 0.00 | 0.00 | 0.00 | 87 | 1017.0 |
| 20260507203607 | 48 | 3 | 6.1 | 11.3 | 0.00 | 0.00 | 0.00 | 87 | 1017.0 |
| 20260507202607 | 48 | 1 | 6.1 | 10.4 | 0.00 | 0.00 | 0.00 | 86 | 1016.0 |
| 20260507201607 | 48 | 1 | 6.1 | 10.4 | 0.00 | 0.00 | 0.00 | 86 | 1016.0 |
| 20260507200607 | 49 | 1 | 6.1 | 10.4 | 0.00 | 0.00 | 0.00 | 86 | 1016.0 |
| 20260507195607 | 49 | 1 | 6.1 | 10.4 | 0.00 | 0.00 | 0.00 | 86 | 1016.0 |
| 20260507194607 | 49 | 1 | 6.1 | 10.4 | 0.00 | 0.00 | 0.00 | 86 | 1016.0 |
| 20260507193607 | 49 | 1 | 6.1 | 10.4 | 0.00 | 0.00 | 0.00 | 85 | 1016.0 |
| 20260507192607 | 49 | 354 | 6.1 | 10.4 | 0.00 | 0.00 | 0.00 | 84 | 1016.0 |
| 20260507191607 | 49 | 354 | 6.1 | 10.4 | 0.00 | 0.00 | 0.00 | 84 | 1016.0 |
| 20260507190607 | 51 | 354 | 6.1 | 10.4 | 0.00 | 0.00 | 0.00 | 84 | 1015.0 |
| 20260507185607 | 51 | 354 | 6.1 | 10.4 | 0.00 | 0.00 | 0.00 | 84 | 1015.0 |
| 20260507184607 | 51 | 346 | 7.0 | 11.3 | 0.00 | 0.00 | 0.00 | 84 | 1015.0 |
| 20260507183607 | 51 | 346 | 7.0 | 11.3 | 0.00 | 0.00 | 0.00 | 84 | 1015.0 |
| 20260507182607 | 50 | 349 | 6.1 | 10.4 | 0.00 | 0.00 | 0.00 | 83 | 1015.0 |
| 20260507181608 | 50 | 349 | 6.1 | 10.4 | 0.00 | 0.00 | 0.00 | 83 | 1015.0 |
| 20260507180608 | 50 | 349 | 6.1 | 10.4 | 0.00 | 0.00 | 0.00 | 83 | 1015.0 |
| 20260507175608 | 51 | 349 | 6.1 | 10.4 | 0.00 | 0.00 | 0.00 | 82 | 1015.0 |
| 20260507174608 | 51 | 349 | 6.1 | 10.4 | 0.00 | 0.00 | 0.00 | 82 | 1015.0 |
| 20260507173608 | 51 | 349 | 6.1 | 10.4 | 0.00 | 0.00 | 0.00 | 82 | 1015.0 |
| 20260507172608 | 50 | 14 | 7.0 | 10.4 | 0.00 | 0.00 | 0.00 | 83 | 1014.0 |
| 20260507171608 | 50 | 14 | 7.0 | 10.4 | 0.00 | 0.00 | 0.00 | 82 | 1014.0 |
| 20260507170608 | 51 | 14 | 7.0 | 10.4 | 0.00 | 0.00 | 0.00 | 80 | 1014.0 |
| 20260507165608 | 51 | 14 | 7.0 | 10.4 | 0.00 | 0.00 | 0.00 | 80 | 1014.0 |
| 20260507164608 | 51 | 14 | 7.0 | 10.4 | 0.00 | 0.00 | 0.00 | 80 | 1014.0 |
| 20260507163608 | 51 | 14 | 7.0 | 10.4 | 0.00 | 0.00 | 0.00 | 80 | 1014.0 |
| 20260507162608 | 51 | 28 | 8.7 | 8.7 | 0.00 | 0.00 | 0.00 | 82 | 1014.0 |
| 20260507161608 | 51 | 28 | 8.7 | 8.7 | 0.00 | 0.00 | 0.00 | 82 | 1014.0 |
| 20260507160608 | 51 | 28 | 8.7 | 8.7 | 0.00 | 0.00 | 0.00 | 78 | 1014.0 |
| 20260507155608 | 51 | 28 | 8.7 | 8.7 | 0.00 | 0.00 | 0.00 | 78 | 1014.0 |
| 20260507154608 | 51 | 28 | 8.7 | 8.7 | 0.00 | 0.00 | 0.00 | 78 | 1014.0 |
| 20260507153608 | 52 | 33 | 8.7 | 9.6 | 0.00 | 0.00 | 0.00 | 81 | 1014.0 |
| 20260507152608 | 52 | 33 | 8.7 | 9.6 | 0.00 | 0.00 | 0.00 | 81 | 1014.0 |
| 20260507151608 | 52 | 33 | 8.7 | 9.6 | 0.00 | 0.00 | 0.00 | 81 | 1014.0 |
| 20260507150608 | 52 | 33 | 8.7 | 9.6 | 0.00 | 0.00 | 0.00 | 81 | 1014.0 |
| 20260507145608 | 52 | 33 | 8.7 | 9.6 | 0.00 | 0.00 | 0.00 | 79 | 1014.0 |
| 20260507144608 | 52 | 33 | 8.7 | 9.6 | 0.00 | 0.00 | 0.00 | 79 | 1014.0 |
| 20260507143608 | 52 | 33 | 8.7 | 9.6 | 0.00 | 0.00 | 0.00 | 79 | 1014.0 |
| 20260507142608 | 52 | 33 | 8.7 | 13.0 | 0.00 | 0.00 | 0.00 | 82 | 1014.0 |
| 20260507141608 | 52 | 33 | 8.7 | 13.0 | 0.00 | 0.00 | 0.00 | 83 | 1014.0 |
| 20260507140608 | 52 | 33 | 8.7 | 13.0 | 0.00 | 0.00 | 0.00 | 83 | 1014.0 |
| 20260507135608 | 53 | 33 | 8.7 | 13.0 | 0.00 | 0.00 | 0.00 | 83 | 1014.0 |
| 20260507134608 | 53 | 33 | 8.7 | 13.0 | 0.00 | 0.00 | 0.00 | 83 | 1014.0 |
| 20260507133608 | 52 | 17 | 6.1 | 7.0 | 0.00 | 0.00 | 0.00 | 84 | 1014.0 |
| 20260507132608 | 52 | 17 | 6.1 | 7.0 | 0.00 | 0.00 | 0.00 | 84 | 1014.0 |
| 20260507131607 | 52 | 17 | 6.1 | 7.0 | 0.00 | 0.00 | 0.00 | 84 | 1014.0 |
| 20260507130607 | 54 | 17 | 6.1 | 7.0 | 0.00 | 0.00 | 0.00 | 82 | 1014.0 |
| 20260507125607 | 54 | 17 | 6.1 | 7.0 | 0.00 | 0.00 | 0.00 | 82 | 1014.0 |
| 20260507124607 | 53 | 7 | 7.8 | 7.8 | 0.00 | 0.00 | 0.00 | 83 | 1014.0 |
| 20260507123607 | 53 | 7 | 7.8 | 7.8 | 0.00 | 0.00 | 0.00 | 83 | 1014.0 |
| 20260507122607 | 52 | 35 | 8.7 | 14.8 | 0.00 | 0.00 | 0.00 | 86 | 1013.0 |
| 20260507121607 | 52 | 35 | 8.7 | 14.8 | 0.00 | 0.00 | 0.00 | 86 | 1013.0 |
| 20260507120607 | 52 | 35 | 8.7 | 14.8 | 0.00 | 0.00 | 0.00 | 86 | 1013.0 |
| 20260507115607 | 53 | 35 | 8.7 | 14.8 | 0.00 | 0.00 | 0.00 | 86 | 1013.0 |
| 20260507114607 | 53 | 35 | 8.7 | 14.8 | 0.00 | 0.00 | 0.00 | 86 | 1013.0 |
| 20260507113607 | 53 | 35 | 8.7 | 14.8 | 0.00 | 0.00 | 0.00 | 86 | 1013.0 |
| 20260507112607 | 52 | 20 | 8.7 | 9.6 | 0.00 | 0.00 | 0.00 | 85 | 1013.0 |
| 20260507111607 | 52 | 20 | 8.7 | 9.6 | 0.00 | 0.00 | 0.00 | 85 | 1013.0 |
| 20260507110607 | 53 | 20 | 8.7 | 9.6 | 0.00 | 0.00 | 0.00 | 81 | 1013.0 |
| 20260507105607 | 53 | 20 | 8.7 | 9.6 | 0.00 | 0.00 | 0.00 | 81 | 1013.0 |
| 20260507104607 | 53 | 20 | 8.7 | 9.6 | 0.00 | 0.00 | 0.00 | 81 | 1013.0 |
| 20260507103607 | 53 | 20 | 8.7 | 9.6 | 0.00 | 0.00 | 0.00 | 81 | 1013.0 |
| 20260507102607 | 52 | 25 | 7.8 | 8.7 | 0.00 | 0.00 | 0.00 | 86 | 1013.0 |
| 20260507101607 | 52 | 25 | 7.8 | 8.7 | 0.00 | 0.00 | 0.00 | 81 | 1012.0 |
| 20260507100607 | 52 | 25 | 7.8 | 8.7 | 0.00 | 0.00 | 0.00 | 81 | 1012.0 |
| 20260507095607 | 52 | 25 | 7.8 | 8.7 | 0.00 | 0.00 | 0.00 | 81 | 1012.0 |
| 20260507094607 | 52 | 25 | 7.8 | 8.7 | 0.00 | 0.00 | 0.00 | 81 | 1012.0 |
| 20260507093607 | 52 | 25 | 7.8 | 8.7 | 0.00 | 0.00 | 0.00 | 81 | 1012.0 |
| 20260507092607 | 51 | 23 | 8.7 | 8.7 | 0.00 | 0.00 | 0.00 | 85 | 1012.0 |
| 20260507091607 | 51 | 23 | 8.7 | 8.7 | 0.00 | 0.00 | 0.00 | 85 | 1012.0 |
| 20260507090607 | 51 | 23 | 8.7 | 8.7 | 0.00 | 0.00 | 0.00 | 85 | 1012.0 |
| 20260507085607 | 51 | 23 | 8.7 | 8.7 | 0.00 | 0.00 | 0.00 | 81 | 1012.0 |
| 20260507084607 | 51 | 23 | 8.7 | 8.7 | 0.00 | 0.00 | 0.00 | 81 | 1012.0 |
| 20260507083607 | 51 | 23 | 8.7 | 8.7 | 0.00 | 0.00 | 0.00 | 81 | 1012.0 |
| 20260507082607 | 50 | 23 | 8.7 | 9.6 | 0.00 | 0.00 | 0.00 | 84 | 1011.0 |
| 20260507081607 | 50 | 23 | 8.7 | 9.6 | 0.00 | 0.00 | 0.00 | 85 | 1011.0 |
| 20260507080607 | 50 | 23 | 8.7 | 9.6 | 0.00 | 0.00 | 0.00 | 82 | 1011.0 |
| 20260507075607 | 50 | 23 | 8.7 | 9.6 | 0.00 | 0.00 | 0.00 | 82 | 1011.0 |
| 20260507074607 | 50 | 23 | 8.7 | 9.6 | 0.00 | 0.00 | 0.00 | 82 | 1011.0 |
| 20260507073607 | 50 | 23 | 8.7 | 9.6 | 0.00 | 0.00 | 0.00 | 82 | 1011.0 |
| 20260507072607 | 49 | 19 | 8.7 | 9.6 | 0.00 | 0.00 | 0.00 | 87 | 1011.0 |
| 20260507071607 | 49 | 19 | 8.7 | 9.6 | 0.00 | 0.00 | 0.00 | 88 | 1010.0 |
| 20260507070607 | 49 | 19 | 8.7 | 9.6 | 0.00 | 0.00 | 0.00 | 85 | 1011.0 |
| 20260507065607 | 49 | 19 | 8.7 | 9.6 | 0.00 | 0.00 | 0.00 | 85 | 1011.0 |
| 20260507064607 | 49 | 8 | 8.7 | 9.6 | 0.00 | 0.00 | 0.00 | 85 | 1011.0 |
| 20260507063607 | 49 | 8 | 8.7 | 9.6 | 0.00 | 0.00 | 0.00 | 85 | 1011.0 |
| 20260507062607 | 49 | 15 | 8.7 | 9.6 | 0.00 | 0.00 | 0.00 | 89 | 1010.0 |
| 20260507061607 | 49 | 15 | 8.7 | 9.6 | 0.00 | 0.00 | 0.00 | 89 | 1010.0 |
| 20260507060607 | 49 | 15 | 8.7 | 9.6 | 0.00 | 0.00 | 0.00 | 89 | 1010.0 |
| 20260507055607 | 48 | 15 | 8.7 | 9.6 | 0.00 | 0.00 | 0.00 | 87 | 1011.0 |
| 20260507054607 | 48 | 15 | 8.7 | 9.6 | 0.00 | 0.00 | 0.00 | 87 | 1011.0 |
| 20260507053607 | 48 | 15 | 8.7 | 9.6 | 0.00 | 0.00 | 0.00 | 87 | 1011.0 |
| 20260507052607 | 48 | 19 | 8.7 | 10.4 | 0.00 | 0.00 | 0.00 | 90 | 1010.0 |
| 20260507051607 | 48 | 19 | 8.7 | 10.4 | 0.00 | 0.00 | 0.00 | 90 | 1010.0 |
| 20260507050607 | 48 | 19 | 8.7 | 10.4 | 0.00 | 0.00 | 0.00 | 90 | 1010.0 |
| 20260507045607 | 48 | 19 | 8.7 | 10.4 | 0.00 | 0.00 | 0.00 | 88 | 1010.0 |
| 20260507044607 | 48 | 19 | 8.7 | 10.4 | 0.00 | 0.00 | 0.00 | 88 | 1010.0 |
| 20260507043607 | 48 | 19 | 8.7 | 10.4 | 0.00 | 0.00 | 0.00 | 88 | 1010.0 |
| 20260507042607 | 48 | 8 | 8.7 | 13.0 | 0.00 | 0.00 | 0.00 | 91 | 1009.0 |
| 20260507041607 | 48 | 8 | 8.7 | 13.0 | 0.00 | 0.00 | 0.00 | 91 | 1009.0 |
| 20260507040607 | 48 | 8 | 8.7 | 13.0 | 0.00 | 0.00 | 0.00 | 91 | 1009.0 |
| 20260507035607 | 48 | 8 | 8.7 | 13.0 | 0.00 | 0.00 | 0.00 | 89 | 1009.0 |
| 20260507034607 | 48 | 8 | 8.7 | 13.0 | 0.00 | 0.00 | 0.00 | 89 | 1009.0 |
| 20260507033607 | 48 | 8 | 8.7 | 13.0 | 0.00 | 0.00 | 0.00 | 89 | 1009.0 |
| 20260507032607 | 48 | 10 | 7.8 | 13.9 | 0.00 | 0.00 | 0.00 | 90 | 1009.0 |
| 20260507031607 | 48 | 10 | 7.8 | 13.9 | 0.00 | 0.00 | 0.00 | 91 | 1009.0 |
| 20260507030607 | 48 | 10 | 7.8 | 13.9 | 0.00 | 0.00 | 0.00 | 91 | 1009.0 |
| 20260507025607 | 47 | 10 | 7.8 | 13.9 | 0.00 | 0.00 | 0.00 | 91 | 1009.0 |
| 20260507024607 | 47 | 10 | 7.8 | 13.9 | 0.00 | 0.00 | 0.00 | 91 | 1009.0 |
| 20260507023607 | 47 | 10 | 7.8 | 13.9 | 0.00 | 0.00 | 0.00 | 91 | 1009.0 |
| 20260507022607 | 48 | 13 | 7.8 | 14.8 | 0.00 | 0.00 | 0.00 | 91 | 1009.0 |
| 20260507021607 | 48 | 13 | 7.8 | 14.8 | 0.00 | 0.00 | 0.00 | 90 | 1008.0 |
| 20260507020607 | 48 | 13 | 7.8 | 14.8 | 0.00 | 0.00 | 0.00 | 90 | 1008.0 |
| 20260507015607 | 47 | 13 | 7.8 | 14.8 | 0.00 | 0.00 | 0.00 | 91 | 1009.0 |
| 20260507014607 | 47 | 13 | 7.8 | 14.8 | 0.00 | 0.00 | 0.00 | 91 | 1009.0 |
| 20260507013607 | 47 | 13 | 7.8 | 14.8 | 0.00 | 0.00 | 0.00 | 91 | 1009.0 |